Time;durP1;ratioP1;P1;durP2;ratioP2;P2;SDS_P1;SDS_P2;PMS_P1;PMS_P2;Temp;Humidity;BMP_temperature;BMP_pressure;BME280_temperature;BME280_humidity;BME280_pressure;Samples;Min_cycle;Max_cycle;Signal;HPM_P1;HPM_P2
2022/03/30 00:01:20;;;;;;;22.88;14.40;;;10.30;60.00;;;;;;5011292;28;20099;-64
2022/03/30 00:03:46;;;;;;;26.40;13.90;;;10.30;60.20;;;;;;5011064;28;20071;-59
2022/03/30 00:06:11;;;;;;;27.58;14.57;;;10.30;60.40;;;;;;5012006;28;20072;-63
2022/03/30 00:08:37;;;;;;;29.52;14.48;;;10.20;60.50;;;;;;5011091;28;20492;-64
2022/03/30 00:11:03;;;;;;;25.33;14.88;;;10.20;60.80;;;;;;5011902;28;20022;-63
2022/03/30 00:13:28;;;;;;;24.35;15.10;;;10.20;60.80;;;;;;5011893;28;20038;-63
2022/03/30 00:15:55;;;;;;;22.70;14.25;;;10.20;60.90;;;;;;5009459;28;20464;-63
2022/03/30 00:18:21;;;;;;;27.95;14.52;;;10.20;61.40;;;;;;5010315;28;20022;-63
2022/03/30 00:20:46;;;;;;;22.08;13.80;;;10.20;61.00;;;;;;5011850;28;20033;-63
2022/03/30 00:23:12;;;;;;;24.60;15.10;;;10.20;61.10;;;;;;5011328;28;20512;-63
2022/03/30 00:25:38;;;;;;;26.25;14.05;;;10.10;61.00;;;;;;5010408;28;20080;-63
2022/03/30 00:28:04;;;;;;;25.25;14.35;;;10.10;61.00;;;;;;5010586;28;20038;-63
2022/03/30 00:30:30;;;;;;;26.55;14.18;;;10.10;61.00;;;;;;5010799;28;20477;-63
2022/03/30 00:32:56;;;;;;;26.02;14.07;;;10.10;61.20;;;;;;5011164;28;20067;-63
2022/03/30 00:35:21;;;;;;;29.02;14.25;;;10.00;61.10;;;;;;5010981;28;20099;-60
2022/03/30 00:37:47;;;;;;;25.20;14.85;;;10.00;61.10;;;;;;5011512;28;20424;-63
2022/03/30 00:40:15;;;;;;;27.92;14.20;;;10.00;61.20;;;;;;5009503;28;20056;-60
2022/03/30 00:42:41;;;;;;;32.72;16.15;;;9.90;61.10;;;;;;5011240;28;20034;-60
2022/03/30 00:45:17;;;;;;;27.23;14.98;;;9.90;61.20;;;;;;5010508;28;20053;-63
2022/03/30 00:47:44;;;;;;;34.22;15.30;;;9.80;61.30;;;;;;5011301;28;20029;-63
2022/03/30 00:50:13;;;;;;;25.00;14.45;;;9.80;61.40;;;;;;5010907;28;20362;-63
2022/03/30 00:52:39;;;;;;;26.10;14.13;;;9.80;61.60;;;;;;5010544;28;20080;-63
2022/03/30 00:55:06;;;;;;;24.05;13.13;;;9.70;61.60;;;;;;5010222;28;20033;-60
2022/03/30 00:57:35;;;;;;;26.48;14.32;;;9.70;61.60;;;;;;5010483;28;20050;-60
2022/03/30 01:00:01;;;;;;;25.55;13.02;;;9.60;61.70;;;;;;5010993;28;20029;-59
2022/03/30 01:02:27;;;;;;;28.42;13.77;;;9.60;61.80;;;;;;5011008;28;20105;-60
2022/03/30 01:04:53;;;;;;;28.48;13.23;;;9.50;61.90;;;;;;5010065;28;20026;-60
2022/03/30 01:07:19;;;;;;;27.10;12.68;;;9.50;61.90;;;;;;5011129;28;20029;-59
2022/03/30 01:09:45;;;;;;;33.05;13.70;;;9.50;62.10;;;;;;5009900;28;20520;-64
2022/03/30 01:12:11;;;;;;;20.35;12.10;;;9.40;62.30;;;;;;5011020;28;20037;-64
2022/03/30 01:14:37;;;;;;;24.60;13.52;;;9.40;62.60;;;;;;5009616;28;20118;-63
2022/03/30 01:17:04;;;;;;;26.33;13.23;;;9.30;62.60;;;;;;5010671;28;20053;-64
2022/03/30 01:19:32;;;;;;;23.63;12.27;;;9.30;63.00;;;;;;5010486;28;20112;-64
2022/03/30 01:21:59;;;;;;;24.00;12.35;;;9.20;63.10;;;;;;5010727;28;20031;-64
2022/03/30 01:24:25;;;;;;;30.70;13.93;;;9.20;63.20;;;;;;5009162;28;20424;-64
2022/03/30 01:26:51;;;;;;;24.95;12.98;;;9.30;63.30;;;;;;5010575;28;20061;-60
2022/03/30 01:34:45;;;;;;;26.00;12.05;;;9.20;63.20;;;;;;5009756;28;20049;-64
2022/03/30 01:37:14;;;;;;;22.20;12.18;;;9.20;63.10;;;;;;5009945;28;20038;-63
2022/03/30 01:39:40;;;;;;;26.48;12.55;;;9.10;63.70;;;;;;5027228;28;20014;-59
2022/03/30 01:42:06;;;;;;;26.08;12.95;;;9.20;63.20;;;;;;5009412;28;20060;-60
2022/03/30 01:44:33;;;;;;;24.27;13.18;;;9.10;63.20;;;;;;5009027;28;20116;-59
2022/03/30 01:46:59;;;;;;;23.48;12.18;;;9.10;63.00;;;;;;5007940;28;20045;-60
2022/03/30 01:49:24;;;;;;;25.25;13.10;;;9.10;62.90;;;;;;5034597;28;20019;-60
2022/03/30 01:51:52;;;;;;;25.80;13.30;;;9.10;63.00;;;;;;4999341;28;20034;-60
2022/03/30 01:54:19;;;;;;;25.05;13.45;;;9.10;63.10;;;;;;5008714;28;20385;-64
2022/03/30 01:56:49;;;;;;;24.13;13.48;;;9.00;63.00;;;;;;5004575;28;20042;-64
2022/03/30 01:59:16;;;;;;;30.75;14.15;;;9.00;63.10;;;;;;5008474;28;20030;-64
2022/03/30 02:01:42;;;;;;;26.23;13.07;;;9.00;63.80;;;;;;5009921;28;20070;-61
2022/03/30 02:04:09;;;;;;;22.40;12.68;;;8.90;63.10;;;;;;5007874;28;20032;-60
2022/03/30 02:06:36;;;;;;;22.42;13.63;;;8.90;63.10;;;;;;5009461;28;20025;-61
2022/03/30 02:09:03;;;;;;;24.83;12.90;;;8.80;63.00;;;;;;5009309;28;20563;-64
2022/03/30 02:11:30;;;;;;;27.70;13.23;;;8.80;63.00;;;;;;5009623;28;20362;-63
2022/03/30 02:13:56;;;;;;;26.13;13.43;;;8.80;63.00;;;;;;5007771;28;20477;-59
2022/03/30 02:16:22;;;;;;;23.98;13.27;;;8.70;63.00;;;;;;5009346;28;20109;-59
2022/03/30 02:18:48;;;;;;;24.33;12.68;;;8.70;63.00;;;;;;5016670;28;20040;-59
2022/03/30 02:21:15;;;;;;;23.88;13.43;;;8.70;63.00;;;;;;5013659;28;20026;-59
2022/03/30 02:23:41;;;;;;;23.52;13.93;;;8.60;63.20;;;;;;5008133;28;20476;-63
2022/03/30 02:26:07;;;;;;;28.35;13.13;;;8.60;63.40;;;;;;5009766;28;20030;-63
2022/03/30 02:28:33;;;;;;;24.67;12.85;;;8.50;63.50;;;;;;5008789;28;20092;-64
2022/03/30 02:30:59;;;;;;;27.17;13.07;;;8.50;63.70;;;;;;5009598;28;20389;-59
2022/03/30 02:33:25;;;;;;;22.63;12.57;;;8.40;63.80;;;;;;5009511;28;20018;-59
2022/03/30 02:35:51;;;;;;;25.65;13.32;;;8.40;63.80;;;;;;5009131;28;20065;-60
2022/03/30 02:38:17;;;;;;;27.40;13.25;;;8.40;64.00;;;;;;5007703;28;20049;-59
2022/03/30 02:40:44;;;;;;;20.75;12.85;;;8.30;64.00;;;;;;5009308;28;20030;-59
2022/03/30 02:43:10;;;;;;;22.58;13.43;;;8.30;64.10;;;;;;5008270;28;20413;-59
2022/03/30 02:45:36;;;;;;;24.30;12.85;;;8.30;64.20;;;;;;5008921;28;20030;-60
2022/03/30 02:48:17;;;;;;;32.63;14.25;;;8.30;64.30;;;;;;5009160;28;20512;-59
2022/03/30 02:50:45;;;;;;;23.38;13.63;;;8.20;64.50;;;;;;5007729;28;20065;-59
2022/03/30 02:53:11;;;;;;;25.45;13.45;;;8.20;64.60;;;;;;5008256;28;20065;-59
2022/03/30 02:55:37;;;;;;;25.08;14.27;;;8.20;64.60;;;;;;5007963;28;20045;-59
2022/03/30 02:58:04;;;;;;;27.70;13.98;;;8.10;64.50;;;;;;5008608;28;20058;-60
2022/03/30 03:00:29;;;;;;;22.33;13.63;;;8.10;64.60;;;;;;5008571;28;20058;-60
2022/03/30 03:02:55;;;;;;;27.33;14.90;;;8.10;64.80;;;;;;5009260;28;20053;-60
2022/03/30 03:05:21;;;;;;;24.73;14.32;;;8.00;65.00;;;;;;5008463;28;20026;-60
2022/03/30 03:07:47;;;;;;;22.88;13.20;;;8.00;65.30;;;;;;5007553;28;20064;-60
2022/03/30 03:10:13;;;;;;;29.23;14.18;;;8.00;65.70;;;;;;5008751;28;20030;-60
2022/03/30 03:12:39;;;;;;;39.63;14.63;;;8.00;65.80;;;;;;5008541;28;20100;-60
2022/03/30 03:15:05;;;;;;;26.15;14.65;;;8.00;65.80;;;;;;5007206;28;20042;-60
2022/03/30 03:17:30;;;;;;;28.42;15.55;;;7.90;65.80;;;;;;5008301;28;20109;-60
2022/03/30 03:19:56;;;;;;;25.27;13.35;;;7.90;65.90;;;;;;5009395;28;20033;-64
2022/03/30 03:22:21;;;;;;;28.13;14.13;;;7.90;66.00;;;;;;5009053;28;20038;-64
2022/03/30 03:24:47;;;;;;;26.95;13.73;;;7.80;66.10;;;;;;5007249;28;20029;-64
2022/03/30 03:27:13;;;;;;;28.80;14.75;;;7.80;66.10;;;;;;5006974;28;20033;-64
2022/03/30 03:29:38;;;;;;;25.10;13.52;;;7.80;66.30;;;;;;5008288;28;20026;-64
2022/03/30 03:32:05;;;;;;;28.15;12.55;;;7.80;66.30;;;;;;5008735;28;20038;-64
2022/03/30 03:34:31;;;;;;;28.75;13.77;;;7.70;66.30;;;;;;5007488;28;20066;-64
2022/03/30 03:36:57;;;;;;;24.92;13.52;;;7.70;66.40;;;;;;5005497;28;20097;-64
2022/03/30 03:39:23;;;;;;;30.42;15.43;;;7.70;66.40;;;;;;5007399;28;20037;-64
2022/03/30 03:41:48;;;;;;;29.45;13.10;;;7.70;66.40;;;;;;5006583;28;20049;-60
2022/03/30 03:44:14;;;;;;;26.98;13.75;;;7.70;66.50;;;;;;5008232;28;20073;-60
2022/03/30 03:46:39;;;;;;;23.30;13.38;;;7.60;66.60;;;;;;5038542;28;20038;-60
2022/03/30 03:49:05;;;;;;;26.70;13.82;;;7.60;66.80;;;;;;5007982;28;20481;-61
2022/03/30 03:51:31;;;;;;;25.90;13.95;;;7.60;67.00;;;;;;5008180;28;20026;-64
2022/03/30 03:53:56;;;;;;;23.52;13.20;;;7.50;67.10;;;;;;5007437;28;20141;-64
2022/03/30 03:56:22;;;;;;;29.25;15.30;;;7.50;67.10;;;;;;5007835;28;20054;-60
2022/03/30 03:58:49;;;;;;;27.25;14.98;;;7.50;67.20;;;;;;5008388;28;20085;-60
2022/03/30 04:01:15;;;;;;;28.98;14.23;;;7.50;67.20;;;;;;5008415;28;20038;-60
2022/03/30 04:03:42;;;;;;;27.15;14.00;;;7.50;67.30;;;;;;5007740;28;20448;-61
2022/03/30 04:06:08;;;;;;;26.33;13.75;;;7.50;67.20;;;;;;5011918;28;20524;-61
2022/03/30 04:08:35;;;;;;;24.35;14.50;;;7.40;67.20;;;;;;5011254;28;20105;-61
2022/03/30 04:11:01;;;;;;;24.02;13.45;;;7.40;67.10;;;;;;5012328;28;20063;-61
2022/03/30 04:13:27;;;;;;;28.15;14.05;;;7.40;67.00;;;;;;5011601;28;20607;-60
2022/03/30 04:15:53;;;;;;;27.88;14.73;;;7.40;67.00;;;;;;5011802;28;20087;-60
2022/03/30 04:18:19;;;;;;;27.40;14.18;;;7.40;66.90;;;;;;5011045;28;20030;-60
2022/03/30 04:20:44;;;;;;;30.48;15.73;;;7.30;66.90;;;;;;5011516;28;20084;-60
2022/03/30 04:23:11;;;;;;;23.67;13.02;;;7.30;67.00;;;;;;5011174;28;20535;-60
2022/03/30 04:25:37;;;;;;;24.63;13.93;;;7.30;67.00;;;;;;5008725;28;20038;-60
2022/03/30 04:28:03;;;;;;;25.55;13.32;;;7.30;67.00;;;;;;5012307;28;20041;-61
2022/03/30 04:30:29;;;;;;;22.73;14.10;;;7.30;66.90;;;;;;5028938;28;20421;-60
2022/03/30 04:32:54;;;;;;;28.80;14.98;;;7.20;66.80;;;;;;5020944;28;20045;-60
2022/03/30 04:35:26;;;;;;;26.98;13.70;;;7.20;66.90;;;;;;5029828;28;20025;-60
2022/03/30 04:37:56;;;;;;;24.02;13.50;;;7.20;67.00;;;;;;5016364;28;20061;-60
2022/03/30 04:40:23;;;;;;;45.28;16.77;;;7.10;66.90;;;;;;5012863;28;20052;-62
2022/03/30 04:42:50;;;;;;;24.85;15.15;;;7.10;66.90;;;;;;5010903;28;20026;-64
2022/03/30 04:45:17;;;;;;;25.88;13.88;;;7.10;66.90;;;;;;5008697;28;20045;-64
2022/03/30 04:47:42;;;;;;;25.77;14.55;;;7.00;66.90;;;;;;5008527;28;20045;-64
2022/03/30 04:50:11;;;;;;;28.60;14.57;;;7.00;67.00;;;;;;5009834;28;20034;-60
2022/03/30 04:52:41;;;;;;;27.15;14.18;;;7.00;67.10;;;;;;5024256;28;20037;-64
2022/03/30 04:55:08;;;;;;;22.80;13.80;;;6.90;67.20;;;;;;5017931;28;20038;-64
2022/03/30 04:57:34;;;;;;;25.40;14.23;;;6.90;67.20;;;;;;5025953;28;20481;-64
2022/03/30 04:59:59;;;;;;;30.70;15.40;;;6.80;67.20;;;;;;5019587;28;20088;-64
2022/03/30 05:02:26;;;;;;;26.88;14.00;;;6.80;67.20;;;;;;5017019;28;20026;-60
2022/03/30 05:04:53;;;;;;;31.73;15.93;;;6.80;67.10;;;;;;5014221;28;20032;-60
2022/03/30 05:07:19;;;;;;;25.45;14.82;;;6.70;67.00;;;;;;5010183;28;20084;-64
2022/03/30 05:09:45;;;;;;;29.50;14.48;;;6.70;67.10;;;;;;5009287;28;20509;-64
2022/03/30 05:12:10;;;;;;;25.40;14.13;;;6.70;67.10;;;;;;5025725;28;20531;-60
2022/03/30 05:14:36;;;;;;;26.20;14.63;;;6.60;67.10;;;;;;5009517;28;20052;-64
2022/03/30 05:17:02;;;;;;;28.42;15.32;;;6.60;67.00;;;;;;5022440;28;20129;-64
2022/03/30 05:19:28;;;;;;;28.55;15.38;;;6.60;67.10;;;;;;5016703;28;20029;-64
2022/03/30 05:21:54;;;;;;;31.45;15.75;;;6.60;67.20;;;;;;5018470;28;20041;-60
2022/03/30 05:24:19;;;;;;;28.58;15.27;;;6.50;67.30;;;;;;5007638;28;20463;-61
2022/03/30 05:26:45;;;;;;;35.72;16.77;;;6.50;67.40;;;;;;5009201;28;20092;-61
2022/03/30 05:29:12;;;;;;;32.10;16.88;;;6.40;67.50;;;;;;5009097;28;20436;-60
2022/03/30 05:31:37;;;;;;;27.08;15.35;;;6.40;67.70;;;;;;5010306;28;20716;-60
2022/03/30 05:34:03;;;;;;;24.55;14.40;;;6.30;67.80;;;;;;5009652;28;20038;-60
2022/03/30 05:36:30;;;;;;;27.23;14.93;;;6.30;67.90;;;;;;5009271;28;20034;-60
2022/03/30 05:38:55;;;;;;;21.85;12.93;;;6.30;68.10;;;;;;5009866;28;20030;-59
2022/03/30 05:41:21;;;;;;;27.48;14.48;;;6.30;68.20;;;;;;5010396;28;20081;-63
2022/03/30 05:43:47;;;;;;;27.05;12.70;;;6.30;68.20;;;;;;5009878;28;20029;-60
2022/03/30 05:46:13;;;;;;;29.75;13.40;;;6.30;68.30;;;;;;5010049;28;20435;-60
2022/03/30 05:48:39;;;;;;;30.65;14.23;;;6.20;68.50;;;;;;5008779;28;20029;-60
2022/03/30 05:51:05;;;;;;;25.95;14.18;;;6.20;68.80;;;;;;5010218;28;20076;-60
2022/03/30 05:53:31;;;;;;;25.30;13.45;;;6.20;69.00;;;;;;5009386;28;20022;-60
2022/03/30 05:55:56;;;;;;;33.25;14.63;;;6.20;69.20;;;;;;5010438;28;20368;-60
2022/03/30 05:58:22;;;;;;;23.27;13.88;;;6.20;69.40;;;;;;5008356;28;20053;-60
2022/03/30 06:00:48;;;;;;;26.80;13.88;;;6.20;69.40;;;;;;5009646;28;20057;-60
2022/03/30 06:03:14;;;;;;;23.55;13.02;;;6.20;69.50;;;;;;5009631;28;20030;-60
2022/03/30 06:05:40;;;;;;;24.63;13.85;;;6.20;69.70;;;;;;5009777;28;20056;-60
2022/03/30 06:08:07;;;;;;;29.27;13.80;;;6.20;69.90;;;;;;5008701;28;20044;-60
2022/03/30 06:10:33;;;;;;;24.77;14.38;;;6.20;70.00;;;;;;5008785;28;20037;-64
2022/03/30 06:12:59;;;;;;;24.25;13.73;;;6.20;70.10;;;;;;5010124;28;20033;-64
2022/03/30 06:15:25;;;;;;;29.00;13.85;;;6.20;70.30;;;;;;5008839;28;20030;-64
2022/03/30 06:17:51;;;;;;;29.83;14.55;;;6.20;70.50;;;;;;5041302;28;20503;-63
2022/03/30 06:20:17;;;;;;;29.67;14.13;;;6.30;70.60;;;;;;5009675;28;20499;-63
2022/03/30 06:22:43;;;;;;;24.90;13.65;;;6.30;70.70;;;;;;5009200;28;20022;-60
2022/03/30 06:25:10;;;;;;;26.05;13.48;;;6.30;70.70;;;;;;5008558;28;20034;-59
2022/03/30 06:27:37;;;;;;;23.35;13.02;;;6.40;70.90;;;;;;5009131;28;20033;-60
2022/03/30 06:30:05;;;;;;;24.98;13.15;;;6.40;71.00;;;;;;5008966;28;20026;-60
2022/03/30 06:32:31;;;;;;;24.67;12.68;;;6.40;71.20;;;;;;5009437;28;20087;-63
2022/03/30 06:34:56;;;;;;;25.85;13.27;;;6.50;71.30;;;;;;5009192;28;20489;-63
2022/03/30 06:37:22;;;;;;;19.85;13.15;;;6.50;71.50;;;;;;5009224;28;20045;-59
2022/03/30 06:39:49;;;;;;;24.02;13.68;;;6.60;71.70;;;;;;5040325;28;20057;-59
2022/03/30 06:42:16;;;;;;;22.92;14.00;;;6.60;71.90;;;;;;5039720;28;20109;-63
2022/03/30 06:44:43;;;;;;;21.30;12.50;;;6.70;72.10;;;;;;5007196;28;20033;-64
2022/03/30 06:47:09;;;;;;;22.63;13.50;;;6.70;72.20;;;;;;5004317;28;20048;-65
2022/03/30 06:49:37;;;;;;;25.05;13.63;;;6.80;72.50;;;;;;5008777;28;20084;-65
2022/03/30 06:52:08;;;;;;;26.02;13.27;;;6.80;72.60;;;;;;5009496;28;20048;-60
2022/03/30 06:54:34;;;;;;;27.00;13.20;;;6.90;72.90;;;;;;4999753;28;20428;-60
2022/03/30 06:57:02;;;;;;;25.92;13.30;;;7.00;73.00;;;;;;5001538;28;20095;-59
2022/03/30 06:59:27;;;;;;;23.15;13.25;;;7.10;73.20;;;;;;5009441;28;20030;-60
2022/03/30 07:01:55;;;;;;;28.95;13.57;;;7.10;73.00;;;;;;5008440;28;20026;-64
2022/03/30 07:04:22;;;;;;;23.33;12.90;;;7.20;73.10;;;;;;5008634;28;20054;-64
2022/03/30 07:12:16;;;;;;;20.88;12.55;;;7.40;73.10;;;;;;5006742;28;20112;-60
2022/03/30 07:14:42;;;;;;;22.27;11.95;;;7.40;73.20;;;;;;5006986;28;20033;-59
2022/03/30 07:17:08;;;;;;;21.02;11.38;;;7.50;73.10;;;;;;5006937;28;20080;-60
2022/03/30 07:19:34;;;;;;;21.00;10.40;;;7.60;73.00;;;;;;5008526;28;20425;-61
2022/03/30 07:21:59;;;;;;;18.38;11.00;;;7.70;72.90;;;;;;5009061;28;20114;-59
2022/03/30 07:24:25;;;;;;;21.35;11.55;;;7.80;72.70;;;;;;5007869;28;20696;-60
2022/03/30 07:26:51;;;;;;;18.55;11.40;;;7.80;72.50;;;;;;5007389;28;20080;-60
2022/03/30 07:29:17;;;;;;;22.00;11.48;;;7.90;72.30;;;;;;5005889;28;20061;-60
2022/03/30 07:31:43;;;;;;;19.90;11.60;;;8.00;72.40;;;;;;5008332;28;20030;-59
2022/03/30 07:34:09;;;;;;;20.80;11.73;;;8.00;72.10;;;;;;5008128;28;20121;-63
2022/03/30 07:36:35;;;;;;;25.55;10.85;;;8.00;71.90;;;;;;5008451;28;20544;-63
2022/03/30 07:39:01;;;;;;;18.90;9.98;;;8.10;71.70;;;;;;5008712;28;20478;-64
2022/03/30 07:41:26;;;;;;;17.75;10.68;;;8.10;71.70;;;;;;5012445;28;20758;-64
2022/03/30 07:43:52;;;;;;;19.30;11.95;;;8.10;71.70;;;;;;5044132;28;20076;-64
2022/03/30 07:46:18;;;;;;;22.08;11.63;;;8.20;71.70;;;;;;5012645;28;20037;-63
2022/03/30 07:48:44;;;;;;;19.23;11.65;;;8.20;71.90;;;;;;5010718;28;20045;-64
2022/03/30 07:51:10;;;;;;;20.83;12.43;;;8.20;72.00;;;;;;5011465;28;20373;-63
2022/03/30 07:53:35;;;;;;;20.38;11.80;;;8.20;72.00;;;;;;5022298;28;20033;-64
2022/03/30 07:56:01;;;;;;;19.88;11.50;;;8.30;72.20;;;;;;5012313;28;20100;-63
2022/03/30 07:58:27;;;;;;;23.67;12.05;;;8.40;72.20;;;;;;5010403;28;20088;-63
2022/03/30 08:00:53;;;;;;;23.65;11.55;;;8.40;72.00;;;;;;5011844;28;20382;-63
2022/03/30 08:03:19;;;;;;;24.00;12.05;;;8.40;72.10;;;;;;5010612;28;20022;-63
2022/03/30 08:05:45;;;;;;;26.33;12.27;;;8.50;71.90;;;;;;5011486;28;20032;-64
2022/03/30 08:08:10;;;;;;;27.73;12.77;;;8.60;71.80;;;;;;5011848;28;20113;-64
2022/03/30 08:10:37;;;;;;;25.38;13.13;;;8.60;71.80;;;;;;5011379;28;20042;-64
2022/03/30 08:13:04;;;;;;;25.85;13.45;;;8.60;71.50;;;;;;5002096;28;20057;-63
2022/03/30 08:15:31;;;;;;;23.73;12.77;;;8.70;71.60;;;;;;5004917;28;20397;-63
2022/03/30 08:17:57;;;;;;;23.17;11.15;;;8.70;71.50;;;;;;5004714;28;20034;-63
2022/03/30 08:23:08;;;;;;;23.92;12.00;;;8.90;71.20;;;;;;5009868;28;20078;-64
2022/03/30 08:25:35;;;;;;;25.88;11.65;;;9.00;70.60;;;;;;5001575;28;20034;-64
2022/03/30 08:28:01;;;;;;;24.88;12.65;;;9.00;70.30;;;;;;4997794;28;20030;-63
2022/03/30 08:30:28;;;;;;;25.80;12.52;;;9.00;70.30;;;;;;5010803;28;20034;-64
2022/03/30 08:32:54;;;;;;;22.27;12.52;;;9.10;70.30;;;;;;5007397;28;20121;-63
2022/03/30 08:35:21;;;;;;;18.35;10.63;;;9.20;70.20;;;;;;5010784;28;20058;-64
2022/03/30 08:37:47;;;;;;;21.15;10.98;;;9.20;70.20;;;;;;4999495;28;20084;-60
2022/03/30 08:40:13;;;;;;;25.08;13.02;;;9.30;69.90;;;;;;5016645;28;20042;-64
2022/03/30 08:42:40;;;;;;;24.20;12.15;;;9.30;69.50;;;;;;5007197;28;20040;-64
2022/03/30 08:45:07;;;;;;;25.35;13.85;;;9.30;69.40;;;;;;5001246;28;20419;-64
2022/03/30 08:47:34;;;;;;;27.75;13.38;;;9.30;69.20;;;;;;5007706;28;20113;-60
2022/03/30 08:50:00;;;;;;;27.10;13.40;;;9.30;69.30;;;;;;5008866;28;20520;-60
2022/03/30 08:52:26;;;;;;;28.10;12.68;;;9.40;69.30;;;;;;5006599;28;20034;-63
2022/03/30 08:54:52;;;;;;;26.48;12.27;;;9.40;69.20;;;;;;5002233;28;20037;-60
2022/03/30 08:57:19;;;;;;;25.55;13.68;;;9.40;69.20;;;;;;5005921;28;20497;-61
2022/03/30 08:59:59;;;;;;;25.13;13.23;;;9.50;69.20;;;;;;5007508;28;20018;-60
2022/03/30 09:02:39;;;;;;;23.88;12.73;;;9.50;69.00;;;;;;5007490;28;20029;-61
2022/03/30 09:05:18;;;;;;;22.60;12.20;;;9.60;68.70;;;;;;5010052;28;20033;-61
2022/03/30 09:07:49;;;;;;;21.25;11.32;;;9.60;68.50;;;;;;5006486;28;20030;-61
2022/03/30 09:10:20;;;;;;;20.25;12.68;;;9.70;68.30;;;;;;5003153;28;20037;-61
2022/03/30 09:12:49;;;;;;;17.83;10.40;;;9.70;68.10;;;;;;5019461;28;20038;-60
2022/03/30 09:15:16;;;;;;;14.40;8.98;;;9.80;67.80;;;;;;5000839;28;20589;-60
2022/03/30 09:17:43;;;;;;;16.15;10.30;;;9.80;67.70;;;;;;5002832;28;20026;-59
2022/03/30 09:20:20;;;;;;;13.18;8.55;;;9.90;67.40;;;;;;5009617;28;20029;-61
2022/03/30 09:22:48;;;;;;;15.80;8.93;;;10.00;67.30;;;;;;5042593;28;20032;-61
2022/03/30 09:25:15;;;;;;;13.35;8.43;;;10.00;67.00;;;;;;5005141;28;20033;-60
2022/03/30 09:27:42;;;;;;;16.00;8.77;;;10.10;66.90;;;;;;5009847;28;20595;-60
2022/03/30 09:30:14;;;;;;;13.85;8.88;;;10.30;66.80;;;;;;5004037;28;20026;-60
2022/03/30 09:32:41;;;;;;;;;;;10.40;66.40;;;;;;4999216;28;20532;-60
2022/03/30 09:35:24;;;;;;;17.42;8.60;;;10.50;66.20;;;;;;4998915;28;19905;-61
2022/03/30 09:38:08;;;;;;;14.70;8.77;;;10.60;66.00;;;;;;4999564;28;20393;-60
2022/03/30 09:40:49;;;;;;;12.27;8.25;;;10.70;65.30;;;;;;4988342;28;20433;-60
2022/03/30 09:43:22;;;;;;;10.05;7.15;;;10.70;64.90;;;;;;5001780;28;20026;-64
2022/03/30 09:46:02;;;;;;;10.52;7.80;;;10.80;64.30;;;;;;5005636;28;20033;-60
2022/03/30 09:48:30;;;;;;;11.25;7.22;;;10.80;64.20;;;;;;5006323;28;20440;-63
2022/03/30 09:50:57;;;;;;;9.13;6.57;;;10.90;64.20;;;;;;5004835;28;20045;-61
2022/03/30 09:53:28;;;;;;;10.10;6.60;;;11.00;63.80;;;;;;5007619;28;20489;-63
2022/03/30 09:55:59;;;;;;;7.65;5.60;;;11.10;63.50;;;;;;5008878;28;20473;-60
2022/03/30 09:58:28;;;;;;;8.60;5.50;;;11.20;63.40;;;;;;5007778;28;20046;-63
2022/03/30 10:01:13;;;;;;;9.73;6.10;;;11.40;63.40;;;;;;5008165;28;20532;-61
2022/03/30 10:03:48;;;;;;;7.22;5.50;;;11.50;63.00;;;;;;5008400;28;20488;-61
2022/03/30 10:06:26;;;;;;;6.85;5.55;;;11.70;62.50;;;;;;5009536;28;21024;-60
2022/03/30 10:08:52;;;;;;;7.22;4.80;;;11.80;61.80;;;;;;5008295;28;20026;-61
2022/03/30 10:11:20;;;;;;;8.75;6.00;;;11.90;61.20;;;;;;5007472;28;20057;-61
2022/03/30 10:13:51;;;;;;;7.53;4.88;;;12.00;60.40;;;;;;5009311;28;20100;-59
2022/03/30 10:16:18;;;;;;;4.72;3.67;;;12.10;59.60;;;;;;5008102;28;20120;-59
2022/03/30 10:18:45;;;;;;;8.18;4.43;;;12.20;59.10;;;;;;5008115;28;20475;-60
2022/03/30 10:21:34;;;;;;;7.43;4.72;;;12.40;57.80;;;;;;5009960;28;20325;-60
2022/03/30 10:24:18;;;;;;;9.32;5.32;;;12.50;57.20;;;;;;5040674;28;20026;-62
2022/03/30 10:26:46;;;;;;;11.18;5.60;;;12.60;56.90;;;;;;5010190;28;20017;-60
2022/03/30 10:29:15;;;;;;;8.38;5.05;;;12.70;56.70;;;;;;5009954;28;20046;-61
2022/03/30 10:31:41;;;;;;;7.45;5.22;;;12.70;56.50;;;;;;5003011;28;20039;-60
2022/03/30 10:34:27;;;;;;;9.10;5.20;;;12.80;56.50;;;;;;5006114;28;20084;-60
2022/03/30 10:37:09;;;;;;;8.70;5.05;;;12.80;56.10;;;;;;4999979;28;20219;-60
2022/03/30 10:39:35;;;;;;;5.90;4.65;;;12.70;55.50;;;;;;5006570;28;20091;-60
2022/03/30 10:42:09;;;;;;;9.13;5.25;;;12.60;55.40;;;;;;5007489;28;20033;-61
2022/03/30 10:44:47;;;;;;;9.40;5.13;;;12.60;54.80;;;;;;5008120;28;20030;-63
2022/03/30 10:47:21;;;;;;;8.00;5.13;;;12.50;55.20;;;;;;5008027;28;20065;-60
2022/03/30 10:50:31;;;;;;;6.80;4.75;;;12.60;55.70;;;;;;5007223;28;20042;-60
2022/03/30 10:52:56;;;;;;;8.25;5.47;;;12.70;55.90;;;;;;5001756;28;20030;-64
2022/03/30 10:55:25;;;;;;;9.40;5.85;;;12.90;55.60;;;;;;5002423;28;20092;-64
2022/03/30 10:57:58;;;;;;;9.38;5.88;;;13.00;55.00;;;;;;5005636;28;20054;-63
2022/03/30 11:00:39;;;;;;;11.80;6.80;;;13.00;54.70;;;;;;5004468;28;20056;-63
2022/03/30 11:03:12;;;;;;;8.32;5.43;;;13.00;54.30;;;;;;5007475;28;20832;-64
2022/03/30 11:05:42;;;;;;;8.93;5.40;;;12.90;54.50;;;;;;5008530;28;20056;-63
2022/03/30 11:08:34;;;;;;;8.05;5.32;;;12.90;54.20;;;;;;5008089;28;20046;-63
2022/03/30 11:11:04;;;;;;;9.13;5.80;;;12.80;54.60;;;;;;4998057;28;20060;-63
2022/03/30 11:13:30;;;;;;;8.68;6.15;;;12.80;54.60;;;;;;5008786;28;20034;-63
2022/03/30 11:15:59;;;;;;;7.07;5.63;;;12.80;54.80;;;;;;5036590;28;20061;-63
2022/03/30 11:18:26;;;;;;;6.75;5.10;;;12.80;55.10;;;;;;5011161;28;20124;-60
2022/03/30 11:21:16;;;;;;;8.13;5.15;;;12.80;55.30;;;;;;5009436;28;20112;-60
2022/03/30 11:23:57;;;;;;;8.07;5.03;;;13.00;55.30;;;;;;5010149;28;20041;-60
2022/03/30 11:26:48;;;;;;;7.45;4.43;;;13.20;54.80;;;;;;5007906;28;20021;-63
2022/03/30 11:29:49;;;;;;;8.80;4.88;;;13.40;53.80;;;;;;5012785;28;20039;-59
2022/03/30 11:32:30;;;;;;;7.00;4.32;;;13.60;53.50;;;;;;5009441;28;20042;-60
2022/03/30 11:35:00;;;;;;;7.32;4.57;;;13.80;53.40;;;;;;5009358;28;20586;-63
2022/03/30 11:37:39;;;;;;;6.40;4.05;;;14.10;52.10;;;;;;5005162;28;20037;-63
2022/03/30 11:40:08;;;;;;;5.47;4.75;;;14.30;52.10;;;;;;5000576;28;20037;-63
2022/03/30 11:42:40;;;;;;;6.43;4.45;;;14.40;52.20;;;;;;5008088;28;20042;-63
2022/03/30 11:45:15;;;;;;;7.05;4.43;;;14.40;51.30;;;;;;5011083;28;20041;-63
2022/03/30 11:47:43;;;;;;;6.45;4.68;;;14.30;51.20;;;;;;5011528;28;20084;-60
2022/03/30 11:50:11;;;;;;;5.00;3.92;;;14.10;50.90;;;;;;5010961;28;20375;-60
2022/03/30 11:52:36;;;;;;;4.47;4.05;;;14.00;51.10;;;;;;5012076;28;20034;-60
2022/03/30 11:55:02;;;;;;;6.15;4.35;;;14.00;51.10;;;;;;5008700;28;20121;-60
2022/03/30 11:57:28;;;;;;;6.55;4.65;;;14.00;50.70;;;;;;5009101;28;20054;-60
2022/03/30 11:59:59;;;;;;;6.00;4.10;;;14.10;50.50;;;;;;5001682;28;20034;-60
2022/03/30 12:02:26;;;;;;;6.93;3.97;;;14.30;51.10;;;;;;5005810;28;20019;-60
2022/03/30 12:04:52;;;;;;;5.90;3.85;;;14.40;50.00;;;;;;5000929;28;20036;-60
2022/03/30 12:07:22;;;;;;;5.20;4.18;;;14.40;50.00;;;;;;5011018;28;20022;-59
2022/03/30 12:09:50;;;;;;;4.38;3.35;;;14.30;50.00;;;;;;5010574;28;20076;-59
2022/03/30 12:12:37;;;;;;;5.10;4.07;;;14.10;50.30;;;;;;5004501;28;20080;-60
2022/03/30 12:15:07;;;;;;;4.90;3.95;;;14.10;50.80;;;;;;5006032;28;20385;-59
2022/03/30 12:17:34;;;;;;;6.85;4.45;;;13.90;51.20;;;;;;5011630;28;20041;-59
2022/03/30 12:20:01;;;;;;;8.02;4.53;;;13.90;51.90;;;;;;5011225;28;20041;-63
2022/03/30 12:22:28;;;;;;;6.72;4.78;;;13.90;51.30;;;;;;5010132;28;20145;-63
2022/03/30 12:24:53;;;;;;;5.00;4.05;;;13.90;51.20;;;;;;5010247;28;20030;-63
2022/03/30 12:27:19;;;;;;;7.50;4.53;;;14.00;51.30;;;;;;5005543;28;20030;-65
2022/03/30 12:29:45;;;;;;;5.63;4.35;;;14.10;51.80;;;;;;5002451;28;20042;-63
2022/03/30 12:32:15;;;;;;;4.97;3.92;;;14.20;51.10;;;;;;5007156;28;20493;-60
2022/03/30 12:34:42;;;;;;;5.43;4.40;;;14.20;51.10;;;;;;5007767;28;20045;-60
2022/03/30 12:37:10;;;;;;;6.32;4.50;;;14.20;51.20;;;;;;5003828;28;20091;-60
2022/03/30 12:39:43;;;;;;;5.93;4.30;;;14.30;51.30;;;;;;5010043;28;20516;-60
2022/03/30 12:42:21;;;;;;;7.65;4.90;;;14.40;51.20;;;;;;5022158;28;20042;-61
2022/03/30 12:45:00;;;;;;;5.25;4.30;;;14.50;50.50;;;;;;5009478;28;20022;-61
2022/03/30 12:47:32;;;;;;;5.45;4.03;;;14.60;50.60;;;;;;5003584;28;20269;-60
2022/03/30 12:50:13;;;;;;;5.85;4.00;;;14.70;50.10;;;;;;5008366;28;20431;-61
2022/03/30 12:52:45;;;;;;;5.80;4.10;;;14.80;49.90;;;;;;5009596;28;20318;-64
2022/03/30 12:55:15;;;;;;;3.95;3.30;;;14.80;49.30;;;;;;5008980;28;20041;-60
2022/03/30 12:57:51;;;;;;;3.90;3.47;;;14.80;48.80;;;;;;5003556;28;20100;-60